createdAt,value
2023-03-05T00:01:54.715Z,2.08
2023-03-05T00:04:21.617Z,1.85
2023-03-05T00:06:48.479Z,2.42
2023-03-05T00:09:15.380Z,2.30
2023-03-05T00:11:42.267Z,2.47
2023-03-05T00:14:10.833Z,2.30
2023-03-05T00:16:37.806Z,2.63
2023-03-05T00:19:05.427Z,2.22
2023-03-05T00:21:32.287Z,2.70
2023-03-05T00:24:01.711Z,2.65
2023-03-05T00:26:29.021Z,2.50
2023-03-05T00:28:56.673Z,2.72
2023-03-05T00:31:25.194Z,2.55
2023-03-05T00:33:55.987Z,1.95
2023-03-05T00:36:23.358Z,2.65
2023-03-05T00:38:50.174Z,2.95
2023-03-05T00:41:17.128Z,2.60
2023-03-05T00:43:43.969Z,2.22
2023-03-05T00:46:11.550Z,2.28
2023-03-05T00:48:38.432Z,2.58
2023-03-05T00:51:05.359Z,2.38
2023-03-05T00:53:32.496Z,2.53
2023-03-05T00:55:59.461Z,2.42
2023-03-05T00:58:26.296Z,1.88
2023-03-05T01:00:53.590Z,2.00
2023-03-05T01:03:20.365Z,2.10
2023-03-05T01:05:48.596Z,2.65
2023-03-05T01:08:16.156Z,1.60
2023-03-05T01:10:43.020Z,1.80
2023-03-05T01:13:10.442Z,2.60
2023-03-05T01:15:37.255Z,1.90
2023-03-05T01:18:04.166Z,1.75
2023-03-05T01:20:30.986Z,1.77
2023-03-05T01:22:59.400Z,1.55
2023-03-05T01:25:26.151Z,1.23
2023-03-05T01:27:53.184Z,1.95
2023-03-05T01:30:20.192Z,1.88
2023-03-05T01:32:46.937Z,1.60
2023-03-05T01:35:18.487Z,2.55
2023-03-05T01:37:45.430Z,2.03
2023-03-05T01:40:13.084Z,1.67
2023-03-05T01:42:40.007Z,1.80
2023-03-05T01:45:07.118Z,1.85
2023-03-05T01:47:33.933Z,1.73
2023-03-05T01:50:00.854Z,2.05
2023-03-05T01:52:28.727Z,2.00
2023-03-05T01:55:01.154Z,1.35
2023-03-05T01:57:29.953Z,1.52
2023-03-05T01:59:59.309Z,1.55
2023-03-05T02:02:26.411Z,1.30
2023-03-05T02:04:54.394Z,1.70
2023-03-05T02:07:21.653Z,1.58
2023-03-05T02:09:48.530Z,1.58
2023-03-05T02:12:15.461Z,1.65
2023-03-05T02:14:45.641Z,1.35
2023-03-05T02:17:12.845Z,1.33
2023-03-05T02:19:47.303Z,1.65
2023-03-05T02:22:14.773Z,1.52
2023-03-05T02:24:41.661Z,1.67
2023-03-05T02:27:08.733Z,2.03
2023-03-05T02:29:37.613Z,1.35
2023-03-05T02:32:04.623Z,2.10
2023-03-05T02:34:31.416Z,2.05
2023-03-05T02:36:58.459Z,1.60
2023-03-05T02:39:25.506Z,2.20
2023-03-05T02:41:53.310Z,2.17
2023-03-05T02:44:20.117Z,2.38
2023-03-05T02:46:47.524Z,1.63
2023-03-05T02:49:14.301Z,2.25
2023-03-05T02:51:41.138Z,1.80
2023-03-05T02:54:08.417Z,2.13
2023-03-05T02:56:35.764Z,1.83
2023-03-05T02:59:02.572Z,1.50
2023-03-05T03:01:29.861Z,1.67
2023-03-05T03:03:57.606Z,2.13
2023-03-05T03:06:24.640Z,1.08
2023-03-05T03:08:51.520Z,1.55
2023-03-05T03:11:18.838Z,1.75
2023-03-05T03:13:45.789Z,1.42
2023-03-05T03:16:14.474Z,1.60
2023-03-05T03:18:41.538Z,1.63
2023-03-05T03:21:08.494Z,1.27
2023-03-05T03:23:35.366Z,1.50
2023-03-05T03:26:02.175Z,1.20
2023-03-05T03:28:28.923Z,1.60
2023-03-05T03:30:55.917Z,1.45
2023-03-05T03:33:22.868Z,1.65
2023-03-05T03:35:49.693Z,1.48
2023-03-05T03:38:16.432Z,1.70
2023-03-05T03:40:43.431Z,1.58
2023-03-05T03:43:10.814Z,1.80
2023-03-05T03:45:40.716Z,1.30
2023-03-05T03:48:07.470Z,1.23
2023-03-05T03:50:34.296Z,1.45
2023-03-05T03:53:01.186Z,1.80
2023-03-05T03:55:28.033Z,1.80
2023-03-05T03:57:54.746Z,1.92
2023-03-05T04:00:21.691Z,1.90
2023-03-05T04:02:48.776Z,2.45
2023-03-05T04:05:15.824Z,2.35
2023-03-05T04:07:42.889Z,2.30
2023-03-05T04:10:10.439Z,2.10
2023-03-05T04:12:37.254Z,2.38
2023-03-05T04:15:04.341Z,2.35
2023-03-05T04:17:31.160Z,2.85
2023-03-05T04:19:57.882Z,3.10
2023-03-05T04:22:24.591Z,3.60
2023-03-05T04:24:51.482Z,4.43
2023-03-05T04:27:18.442Z,4.90
2023-03-05T04:29:45.376Z,4.35
2023-03-05T04:32:12.396Z,5.25
2023-03-05T04:34:41.664Z,4.22
2023-03-05T04:37:08.520Z,4.57
2023-03-05T04:39:35.806Z,5.13
2023-03-05T04:42:02.629Z,4.95
2023-03-05T04:44:29.581Z,4.65
2023-03-05T04:46:56.386Z,4.68
2023-03-05T04:49:23.166Z,3.97
2023-03-05T04:51:50.072Z,3.90
2023-03-05T04:54:16.956Z,4.18
2023-03-05T04:56:43.729Z,4.50
2023-03-05T04:59:10.861Z,5.60
2023-03-05T05:01:38.940Z,5.53
2023-03-05T05:04:06.287Z,5.15
2023-03-05T05:06:33.442Z,4.90
2023-03-05T05:09:00.528Z,4.57
2023-03-05T05:11:27.527Z,3.75
2023-03-05T05:13:54.218Z,3.88
2023-03-05T05:16:21.165Z,3.13
2023-03-05T05:18:47.969Z,3.00
2023-03-05T05:21:15.119Z,2.53
2023-03-05T05:23:41.999Z,2.55
2023-03-05T05:26:09.716Z,2.10
2023-03-05T05:28:41.932Z,2.20
2023-03-05T05:31:15.691Z,2.20
2023-03-05T05:33:43.052Z,2.30
2023-03-05T05:36:11.564Z,2.38
2023-03-05T05:38:39.157Z,2.65
2023-03-05T05:41:09.628Z,3.45
2023-03-05T05:43:36.620Z,4.15
2023-03-05T05:46:05.135Z,4.55
2023-03-05T05:48:33.533Z,5.47
2023-03-05T05:51:04.672Z,5.35
2023-03-05T05:53:31.578Z,6.15
2023-03-05T05:55:58.479Z,6.32
2023-03-05T05:58:25.585Z,5.97
2023-03-05T06:00:52.355Z,6.97
2023-03-05T06:03:19.206Z,7.35
2023-03-05T06:05:47.630Z,7.68
2023-03-05T06:08:14.564Z,8.35
2023-03-05T06:10:41.459Z,7.97
2023-03-05T06:13:08.400Z,7.75
2023-03-05T06:15:35.253Z,9.40
2023-03-05T06:18:02.234Z,9.10
2023-03-05T06:20:29.229Z,7.90
2023-03-05T06:22:56.285Z,8.55
2023-03-05T06:25:23.288Z,7.82
2023-03-05T06:27:50.169Z,6.47
2023-03-05T06:30:17.191Z,6.25
2023-03-05T06:32:44.173Z,5.70
2023-03-05T06:35:11.013Z,5.60
2023-03-05T06:37:37.856Z,6.07
2023-03-05T06:40:05.577Z,6.75
2023-03-05T06:42:33.463Z,6.70
2023-03-05T06:45:00.233Z,6.45
2023-03-05T06:47:27.111Z,6.55
2023-03-05T06:49:53.978Z,6.72
2023-03-05T06:52:21.516Z,5.30
2023-03-05T06:54:48.278Z,6.35
2023-03-05T06:57:15.002Z,6.22
2023-03-05T06:59:41.875Z,5.65
2023-03-05T07:02:10.890Z,5.78
2023-03-05T07:04:37.785Z,5.78
2023-03-05T07:07:04.717Z,5.13
2023-03-05T07:09:31.605Z,4.97
2023-03-05T07:11:58.489Z,4.75
2023-03-05T07:14:25.584Z,4.95
2023-03-05T07:16:52.472Z,4.78
2023-03-05T07:19:19.316Z,4.70
2023-03-05T07:21:46.468Z,4.18
2023-03-05T07:24:13.811Z,4.25
2023-03-05T07:26:40.739Z,4.35
2023-03-05T07:29:07.453Z,4.43
2023-03-05T07:31:34.256Z,4.22
2023-03-05T07:34:01.996Z,3.80
2023-03-05T07:36:28.888Z,4.05
2023-03-05T07:38:55.699Z,3.40
2023-03-05T07:41:23.676Z,3.58
2023-03-05T07:43:51.938Z,2.88
2023-03-05T07:46:19.475Z,3.10
2023-03-05T07:48:46.309Z,3.28
2023-03-05T07:51:17.586Z,2.40
2023-03-05T07:53:44.822Z,2.20
2023-03-05T07:56:11.701Z,2.03
2023-03-05T07:58:38.945Z,3.17
2023-03-05T08:01:13.100Z,1.65
2023-03-05T08:03:40.903Z,1.17
2023-03-05T08:06:08.216Z,1.05
2023-03-05T08:08:36.263Z,0.98
2023-03-05T08:11:04.369Z,0.88
2023-03-05T08:13:31.330Z,0.70
2023-03-05T08:15:58.152Z,0.68
2023-03-05T08:18:25.194Z,0.70
2023-03-05T08:20:51.913Z,0.70
2023-03-05T08:23:18.625Z,0.50
2023-03-05T08:25:45.471Z,0.60
2023-03-05T08:28:12.235Z,0.50
2023-03-05T08:30:40.849Z,0.60
2023-03-05T08:33:07.634Z,0.75
2023-03-05T08:35:34.441Z,0.40
2023-03-05T08:38:01.197Z,0.70
2023-03-05T08:40:28.165Z,0.70
2023-03-05T08:42:54.895Z,0.60
2023-03-05T08:45:21.751Z,0.80
2023-03-05T08:47:48.556Z,0.40
2023-03-05T08:50:15.628Z,0.57
2023-03-05T08:52:44.023Z,0.40
2023-03-05T08:55:12.545Z,0.30
2023-03-05T08:57:39.389Z,0.30
2023-03-05T09:00:07.410Z,0.60
2023-03-05T09:02:34.206Z,0.63
2023-03-05T09:05:01.090Z,0.40
2023-03-05T09:07:27.933Z,0.60
2023-03-05T09:09:54.664Z,0.70
2023-03-05T09:12:21.522Z,0.52
2023-03-05T09:14:48.370Z,0.60
2023-03-05T09:17:15.303Z,0.43
2023-03-05T09:19:41.979Z,0.40
2023-03-05T09:22:08.783Z,0.65
2023-03-05T09:24:36.441Z,0.43
2023-03-05T09:27:03.298Z,0.50
2023-03-05T09:29:31.270Z,0.35
2023-03-05T09:31:58.301Z,0.30
2023-03-05T09:34:25.295Z,0.30
2023-03-05T09:36:52.111Z,0.35
2023-03-05T09:39:18.905Z,0.40
2023-03-05T09:42:01.255Z,0.20
2023-03-05T09:44:28.176Z,0.38
2023-03-05T09:47:14.673Z,0.35
2023-03-05T09:50:00.196Z,0.40
2023-03-05T09:52:45.610Z,0.55
2023-03-05T09:55:25.611Z,0.50
2023-03-05T09:57:55.909Z,0.40
2023-03-05T10:00:40.852Z,0.32
2023-03-05T10:03:14.982Z,0.60
2023-03-05T10:06:00.580Z,0.65
2023-03-05T10:08:31.238Z,0.85
2023-03-05T10:10:59.819Z,1.02
2023-03-05T10:13:29.304Z,0.73
2023-03-05T10:15:59.133Z,0.80
2023-03-05T10:18:33.101Z,0.90
2023-03-05T10:21:03.485Z,0.70
2023-03-05T10:23:31.947Z,0.90
2023-03-05T10:26:01.498Z,0.85
2023-03-05T10:28:34.118Z,0.60
2023-03-05T10:31:07.176Z,0.73
2023-03-05T10:33:34.052Z,0.80
2023-03-05T10:36:11.486Z,0.60
2023-03-05T10:38:50.151Z,0.70
2023-03-05T10:41:24.529Z,0.68
2023-03-05T10:43:57.395Z,0.88
2023-03-05T10:46:28.659Z,0.73
2023-03-05T10:48:55.441Z,0.55
2023-03-05T10:51:35.010Z,0.70
2023-03-05T10:54:04.848Z,0.73
2023-03-05T10:56:34.647Z,0.80
2023-03-05T10:59:03.905Z,0.98
2023-03-05T11:01:31.912Z,0.90
2023-03-05T11:04:00.379Z,0.75
2023-03-05T11:06:30.035Z,0.98
2023-03-05T11:09:14.758Z,0.85
2023-03-05T11:11:41.647Z,0.80
2023-03-05T11:14:22.109Z,1.05
2023-03-05T11:16:49.840Z,0.98
2023-03-05T11:19:20.175Z,0.95
2023-03-05T11:22:04.747Z,0.50
2023-03-05T11:24:31.592Z,0.55
2023-03-05T11:26:59.442Z,0.38
2023-03-05T11:29:28.026Z,0.52
2023-03-05T11:31:55.187Z,0.40
2023-03-05T11:34:23.981Z,0.60
2023-03-05T11:36:50.736Z,0.68
2023-03-05T11:39:18.323Z,0.60
2023-03-05T11:41:48.949Z,0.52
2023-03-05T11:44:34.744Z,0.50
2023-03-05T11:47:13.856Z,0.50
2023-03-05T11:49:43.970Z,0.40
2023-03-05T11:52:26.299Z,0.40
2023-03-05T11:55:12.024Z,0.30
2023-03-05T11:57:43.572Z,0.30
2023-03-05T12:00:16.204Z,0.70
2023-03-05T12:02:43.881Z,0.40
2023-03-05T12:05:14.542Z,0.50
2023-03-05T12:07:43.277Z,0.30
2023-03-05T12:10:16.271Z,0.47
2023-03-05T12:12:49.390Z,0.43
2023-03-05T12:15:20.122Z,0.45
2023-03-05T12:18:07.495Z,0.30
2023-03-05T12:20:50.236Z,0.60
2023-03-05T12:23:19.542Z,0.70
2023-03-05T12:25:51.846Z,0.70
2023-03-05T12:28:30.795Z,0.85
2023-03-05T12:31:01.241Z,0.90
2023-03-05T12:33:34.116Z,0.90
2023-03-05T12:36:19.800Z,1.05
2023-03-05T12:38:48.174Z,0.90
2023-03-05T12:41:25.758Z,0.90
2023-03-05T12:44:03.058Z,0.77
2023-03-05T12:48:56.962Z,0.70
2023-03-05T12:51:38.008Z,0.70
2023-03-05T12:54:26.213Z,0.63
2023-03-05T12:56:54.540Z,0.77
2023-03-05T12:59:23.559Z,0.60
2023-03-05T13:02:03.065Z,0.60
2023-03-05T13:04:31.669Z,0.73
2023-03-05T13:06:59.977Z,0.60
2023-03-05T13:09:28.517Z,0.38
2023-03-05T13:11:55.846Z,0.55
2023-03-05T13:14:31.664Z,8.15
2023-03-05T13:16:59.155Z,0.80
2023-03-05T13:19:26.240Z,0.50
2023-03-05T13:21:58.314Z,0.30
2023-03-05T13:24:25.235Z,0.47
2023-03-05T13:26:51.943Z,0.40
2023-03-05T13:29:19.723Z,0.60
2023-03-05T13:31:48.766Z,0.47
2023-03-05T13:34:18.671Z,0.30
2023-03-05T13:36:52.104Z,0.40
2023-03-05T13:39:24.867Z,0.50
2023-03-05T13:41:59.199Z,0.40
2023-03-05T13:44:26.221Z,0.50
2023-03-05T13:46:53.128Z,0.30
2023-03-05T13:49:21.249Z,0.60
2023-03-05T13:51:52.688Z,1.13
2023-03-05T13:54:20.104Z,0.73
2023-03-05T13:56:50.821Z,0.68
2023-03-05T13:59:18.937Z,0.60
2023-03-05T14:01:47.956Z,0.50
2023-03-05T14:04:14.772Z,0.60
2023-03-05T14:06:56.072Z,0.50
2023-03-05T14:09:24.787Z,0.68
2023-03-05T14:12:14.834Z,0.50
2023-03-05T14:14:43.639Z,0.90
2023-03-05T14:17:30.142Z,1.65
2023-03-05T14:20:27.418Z,0.30
2023-03-05T14:25:38.648Z,0.45
2023-03-05T14:28:05.838Z,0.50
2023-03-05T14:30:32.958Z,0.50
2023-03-05T14:33:00.716Z,0.50
2023-03-05T14:35:29.003Z,0.60
2023-03-05T14:37:57.114Z,0.90
2023-03-05T14:40:34.274Z,0.88
2023-03-05T14:43:02.150Z,1.30
2023-03-05T14:45:32.572Z,0.98
2023-03-05T14:48:00.492Z,0.85
2023-03-05T14:50:32.265Z,1.13
2023-03-05T14:53:00.402Z,0.90
2023-03-05T14:55:31.097Z,0.75
2023-03-05T14:58:01.400Z,0.68
2023-03-05T15:00:28.923Z,0.70
2023-03-05T15:02:55.854Z,0.77
2023-03-05T15:05:22.781Z,0.68
2023-03-05T15:07:50.253Z,0.60
2023-03-05T15:10:18.382Z,0.85
2023-03-05T15:12:45.329Z,0.80
2023-03-05T15:15:15.684Z,0.75
2023-03-05T15:17:44.554Z,0.77
2023-03-05T15:20:16.129Z,0.73
2023-03-05T15:22:42.936Z,0.90
2023-03-05T15:25:10.619Z,0.95
2023-03-05T15:27:39.002Z,0.95
2023-03-05T15:30:07.217Z,0.93
2023-03-05T15:32:34.907Z,1.20
2023-03-05T15:35:01.813Z,1.10
2023-03-05T15:37:28.792Z,1.10
2023-03-05T15:39:55.980Z,1.50
2023-03-05T15:42:23.133Z,1.33
2023-03-05T15:44:50.072Z,1.50
2023-03-05T15:47:17.129Z,1.48
2023-03-05T15:49:43.809Z,0.90
2023-03-05T15:52:10.949Z,0.93
2023-03-05T15:54:38.034Z,0.55
2023-03-05T15:57:08.258Z,0.77
2023-03-05T15:59:35.140Z,1.20
2023-03-05T16:02:02.286Z,1.48
2023-03-05T16:04:29.476Z,0.80
2023-03-05T16:06:59.076Z,1.10
2023-03-05T16:09:26.824Z,0.85
2023-03-05T16:11:53.694Z,0.75
2023-03-05T16:14:24.625Z,0.68
2023-03-05T16:16:53.100Z,1.20
2023-03-05T16:19:20.772Z,1.65
2023-03-05T16:21:47.682Z,0.80
2023-03-05T16:24:14.849Z,1.30
2023-03-05T16:26:42.377Z,1.30
2023-03-05T16:29:09.609Z,1.30
2023-03-05T16:31:38.269Z,1.40
2023-03-05T16:34:05.367Z,1.42
2023-03-05T16:36:35.321Z,1.10
2023-03-05T16:39:03.832Z,1.40
2023-03-05T16:41:31.036Z,1.38
2023-03-05T16:43:58.465Z,1.90
2023-03-05T16:46:28.926Z,1.75
2023-03-05T16:48:55.947Z,1.40
2023-03-05T16:51:22.883Z,2.30
2023-03-05T16:53:49.907Z,2.30
2023-03-05T16:56:16.985Z,2.17
2023-03-05T16:58:43.897Z,2.15
2023-03-05T17:01:15.860Z,2.60
2023-03-05T17:03:43.620Z,2.15
2023-03-05T17:06:14.774Z,2.40
2023-03-05T17:08:42.102Z,1.75
2023-03-05T17:11:09.582Z,1.27
2023-03-05T17:13:37.058Z,0.90
2023-03-05T17:16:04.987Z,0.80
2023-03-05T17:18:32.402Z,0.70
2023-03-05T17:21:00.505Z,1.60
2023-03-05T17:23:27.424Z,1.23
2023-03-05T17:25:54.370Z,1.60
2023-03-05T17:28:21.524Z,1.02
2023-03-05T17:30:48.472Z,0.70
2023-03-05T17:33:15.381Z,1.63
2023-03-05T17:35:48.365Z,0.60
2023-03-05T17:38:15.284Z,1.33
2023-03-05T17:40:42.199Z,0.70
2023-03-05T17:43:09.628Z,0.70
2023-03-05T17:45:36.652Z,0.70
2023-03-05T17:48:03.877Z,0.60
2023-03-05T17:50:30.842Z,0.60
2023-03-05T17:52:57.660Z,0.50
2023-03-05T17:55:25.692Z,0.68
2023-03-05T17:57:52.578Z,0.90
2023-03-05T18:00:21.034Z,1.17
2023-03-05T18:02:47.897Z,0.95
2023-03-05T18:05:14.926Z,1.02
2023-03-05T18:07:41.792Z,0.95
2023-03-05T18:10:09.370Z,0.80
2023-03-05T18:12:36.252Z,0.70
2023-03-05T18:15:04.957Z,1.00
2023-03-05T18:17:31.815Z,1.02
2023-03-05T18:19:58.646Z,1.50
2023-03-05T18:22:25.645Z,2.58
2023-03-05T18:24:52.398Z,2.28
2023-03-05T18:27:20.049Z,2.30
2023-03-05T18:29:48.326Z,1.50
2023-03-05T18:32:15.090Z,1.90
2023-03-05T18:34:42.047Z,2.15
2023-03-05T18:37:09.306Z,2.42
2023-03-05T18:39:36.489Z,2.53
2023-03-05T18:42:03.512Z,2.38
2023-03-05T18:44:30.289Z,2.50
2023-03-05T18:46:58.048Z,2.30
2023-03-05T18:49:27.291Z,2.60
2023-03-05T18:51:55.640Z,2.80
2023-03-05T18:54:22.498Z,3.10
2023-03-05T18:56:49.621Z,3.22
2023-03-05T18:59:16.393Z,2.40
2023-03-05T19:01:44.447Z,2.00
2023-03-05T19:04:11.577Z,2.28
2023-03-05T19:06:38.609Z,1.88
2023-03-05T19:09:12.120Z,1.55
2023-03-05T19:11:40.974Z,1.63
2023-03-05T19:14:07.794Z,1.48
2023-03-05T19:16:40.639Z,1.40
2023-03-05T19:19:20.454Z,1.55
2023-03-05T19:21:48.708Z,1.73
2023-03-05T19:24:16.531Z,1.45
2023-03-05T19:26:43.747Z,1.60
2023-03-05T19:29:11.123Z,2.13
2023-03-05T19:31:38.335Z,1.88
2023-03-05T19:34:05.436Z,2.75
2023-03-05T19:36:32.824Z,2.08
2023-03-05T19:38:59.927Z,2.47
2023-03-05T19:41:28.075Z,2.05
2023-03-05T19:43:55.093Z,2.42
2023-03-05T19:46:22.053Z,2.38
2023-03-05T19:48:49.615Z,2.58
2023-03-05T19:51:20.348Z,3.08
2023-03-05T19:53:47.543Z,2.80
2023-03-05T19:56:16.462Z,3.53
2023-03-05T19:58:47.642Z,3.53
2023-03-05T20:01:16.179Z,3.67
2023-03-05T20:03:47.116Z,3.53
2023-03-05T20:06:14.010Z,4.00
2023-03-05T20:08:40.915Z,3.45
2023-03-05T20:11:09.897Z,2.60
2023-03-05T20:13:37.070Z,2.80
2023-03-05T20:16:04.049Z,2.70
2023-03-05T20:18:30.926Z,2.83
2023-03-05T20:21:01.807Z,3.00
2023-03-05T20:23:28.936Z,3.92
2023-03-05T20:25:57.032Z,4.82
2023-03-05T20:28:26.147Z,4.07
2023-03-05T20:30:53.659Z,3.25
2023-03-05T20:33:20.877Z,3.55
2023-03-05T20:35:47.579Z,3.72
2023-03-05T20:38:29.577Z,3.75
2023-03-05T20:40:56.441Z,4.10
2023-03-05T20:43:23.491Z,4.45
2023-03-05T20:45:50.773Z,4.88
2023-03-05T20:48:17.980Z,4.50
2023-03-05T20:50:46.875Z,5.30
2023-03-05T20:53:14.089Z,4.90
2023-03-05T20:55:41.609Z,5.72
2023-03-05T20:58:09.690Z,5.68
2023-03-05T21:00:37.209Z,5.78
2023-03-05T21:03:03.972Z,6.68
2023-03-05T21:05:30.992Z,6.18
2023-03-05T21:07:58.579Z,6.70
2023-03-05T21:10:27.080Z,6.78
2023-03-05T21:12:54.403Z,6.38
2023-03-05T21:15:22.761Z,7.03
2023-03-05T21:17:49.718Z,7.10
2023-03-05T21:20:20.553Z,7.97
2023-03-05T21:22:47.527Z,7.72
2023-03-05T21:25:21.163Z,8.07
2023-03-05T21:27:48.908Z,8.57
2023-03-05T21:30:16.888Z,8.15
2023-03-05T21:32:43.759Z,7.68
2023-03-05T21:35:29.349Z,7.85
2023-03-05T21:37:56.264Z,6.75
2023-03-05T21:40:23.230Z,6.40
2023-03-05T21:42:50.430Z,7.57
2023-03-05T21:45:18.467Z,8.20
2023-03-05T21:47:45.316Z,7.68
2023-03-05T21:50:14.244Z,7.70
2023-03-05T21:52:41.331Z,8.32
2023-03-05T21:55:10.878Z,8.90
2023-03-05T21:57:37.596Z,7.55
2023-03-05T22:00:06.435Z,7.30
2023-03-05T22:02:39.534Z,7.22
2023-03-05T22:05:07.839Z,7.10
2023-03-05T22:07:34.630Z,6.65
2023-03-05T22:10:01.591Z,6.65
2023-03-05T22:12:47.758Z,6.68
2023-03-05T22:15:14.554Z,6.20
2023-03-05T22:17:41.376Z,6.88
2023-03-05T22:20:08.490Z,6.90
2023-03-05T22:22:36.489Z,7.25
2023-03-05T22:25:04.262Z,7.00
2023-03-05T22:27:31.378Z,6.53
2023-03-05T22:29:58.429Z,7.10
2023-03-05T22:32:25.303Z,5.38
2023-03-05T22:34:56.030Z,6.10
2023-03-05T22:37:22.872Z,6.03
2023-03-05T22:39:53.381Z,5.50
2023-03-05T22:42:20.167Z,5.75
2023-03-05T22:44:46.960Z,5.88
2023-03-05T22:47:13.828Z,5.95
2023-03-05T22:49:40.925Z,6.07
2023-03-05T22:52:07.906Z,7.32
2023-03-05T22:54:34.810Z,7.80
2023-03-05T22:57:01.772Z,8.25
2023-03-05T22:59:28.737Z,8.43
2023-03-05T23:01:55.469Z,8.45
2023-03-05T23:04:40.522Z,9.55
2023-03-05T23:07:07.477Z,8.73
2023-03-05T23:09:34.205Z,9.82
2023-03-05T23:12:01.132Z,10.15
2023-03-05T23:14:27.822Z,10.18
2023-03-05T23:16:54.725Z,10.95
2023-03-05T23:19:21.888Z,10.07
2023-03-05T23:21:48.716Z,10.45
2023-03-05T23:24:15.728Z,10.80
2023-03-05T23:26:42.693Z,11.48
2023-03-05T23:29:09.837Z,9.35
2023-03-05T23:31:36.676Z,9.98
2023-03-05T23:34:03.487Z,10.57
2023-03-05T23:36:30.251Z,10.85
2023-03-05T23:38:58.062Z,10.02
2023-03-05T23:41:24.971Z,10.13
2023-03-05T23:43:51.768Z,9.52
2023-03-05T23:46:18.487Z,9.50
2023-03-05T23:48:45.448Z,9.27
2023-03-05T23:51:12.376Z,8.68
2023-03-05T23:53:39.437Z,9.07
2023-03-05T23:56:10.658Z,8.45
2023-03-05T23:58:38.659Z,8.38
